sensor_id;sensor_type;location;lat;lon;timestamp;P1;durP1;ratioP1;P2;durP2;ratioP2
57299;SDS011;43148;50.966;18.198;2023-06-05T00:03:59;1.50;;;1.30;;
57299;SDS011;43148;50.966;18.198;2023-06-05T00:13:42;2.20;;;2.00;;
57299;SDS011;43148;50.966;18.198;2023-06-05T00:23:25;1.50;;;1.40;;
57299;SDS011;43148;50.966;18.198;2023-06-05T00:33:07;2.00;;;1.60;;
57299;SDS011;43148;50.966;18.198;2023-06-05T00:42:49;1.90;;;0.90;;
57299;SDS011;43148;50.966;18.198;2023-06-05T00:52:32;1.60;;;1.50;;
57299;SDS011;43148;50.966;18.198;2023-06-05T01:02:18;1.90;;;1.70;;
57299;SDS011;43148;50.966;18.198;2023-06-05T01:22:08;2.50;;;2.00;;
57299;SDS011;43148;50.966;18.198;2023-06-05T01:32:02;2.30;;;2.00;;
57299;SDS011;43148;50.966;18.198;2023-06-05T01:49:09;1.80;;;1.20;;
57299;SDS011;43148;50.966;18.198;2023-06-05T01:58:52;1.90;;;1.80;;
57299;SDS011;43148;50.966;18.198;2023-06-05T02:08:41;2.50;;;0.90;;
57299;SDS011;43148;50.966;18.198;2023-06-05T02:18:31;3.40;;;3.10;;
57299;SDS011;43148;50.966;18.198;2023-06-05T02:28:15;2.40;;;2.20;;
57299;SDS011;43148;50.966;18.198;2023-06-05T02:38:02;2.60;;;2.50;;
57299;SDS011;43148;50.966;18.198;2023-06-05T02:47:50;1.50;;;1.40;;
57299;SDS011;43148;50.966;18.198;2023-06-05T02:57:33;1.50;;;1.40;;
57299;SDS011;43148;50.966;18.198;2023-06-05T03:07:29;4.90;;;1.30;;
57299;SDS011;43148;50.966;18.198;2023-06-05T03:17:13;2.00;;;1.70;;
57299;SDS011;43148;50.966;18.198;2023-06-05T03:26:56;2.10;;;1.00;;
57299;SDS011;43148;50.966;18.198;2023-06-05T03:36:39;1.20;;;1.20;;
57299;SDS011;43148;50.966;18.198;2023-06-05T03:46:24;2.50;;;1.70;;
57299;SDS011;43148;50.966;18.198;2023-06-05T03:56:20;3.90;;;3.40;;
57299;SDS011;43148;50.966;18.198;2023-06-05T04:06:05;2.20;;;2.00;;
57299;SDS011;43148;50.966;18.198;2023-06-05T04:15:52;2.30;;;2.10;;
57299;SDS011;43148;50.966;18.198;2023-06-05T04:25:34;1.70;;;1.60;;
57299;SDS011;43148;50.966;18.198;2023-06-05T04:35:21;0.50;;;0.50;;
57299;SDS011;43148;50.966;18.198;2023-06-05T04:45:05;8.40;;;1.70;;
57299;SDS011;43148;50.966;18.198;2023-06-05T04:54:52;3.10;;;2.90;;
57299;SDS011;43148;50.966;18.198;2023-06-05T05:04:36;4.00;;;2.10;;
57299;SDS011;43148;50.966;18.198;2023-06-05T05:14:19;4.60;;;4.20;;
57299;SDS011;43148;50.966;18.198;2023-06-05T05:24:05;2.90;;;2.70;;
57299;SDS011;43148;50.966;18.198;2023-06-05T05:33:51;2.30;;;2.20;;
57299;SDS011;43148;50.966;18.198;2023-06-05T05:43:34;3.50;;;2.30;;
57299;SDS011;43148;50.966;18.198;2023-06-05T05:53:17;3.20;;;2.90;;
57299;SDS011;43148;50.966;18.198;2023-06-05T06:03:03;1.90;;;1.80;;
57299;SDS011;43148;50.966;18.198;2023-06-05T06:13:00;7.70;;;2.80;;
57299;SDS011;43148;50.966;18.198;2023-06-05T06:22:47;3.10;;;1.60;;
57299;SDS011;43148;50.966;18.198;2023-06-05T06:32:34;1.70;;;1.60;;
57299;SDS011;43148;50.966;18.198;2023-06-05T06:42:16;3.40;;;1.30;;
57299;SDS011;43148;50.966;18.198;2023-06-05T06:52:01;1.60;;;0.60;;
57299;SDS011;43148;50.966;18.198;2023-06-05T07:02:07;2.10;;;2.00;;
57299;SDS011;43148;50.966;18.198;2023-06-05T07:12:01;0.70;;;0.70;;
57299;SDS011;43148;50.966;18.198;2023-06-05T07:21:51;3.80;;;1.50;;
57299;SDS011;43148;50.966;18.198;2023-06-05T07:31:36;6.40;;;0.90;;
57299;SDS011;43148;50.966;18.198;2023-06-05T07:41:20;1.00;;;0.70;;
57299;SDS011;43148;50.966;18.198;2023-06-05T07:51:03;5.60;;;1.30;;
57299;SDS011;43148;50.966;18.198;2023-06-05T08:00:46;0.90;;;0.90;;
57299;SDS011;43148;50.966;18.198;2023-06-05T08:10:40;0.80;;;0.80;;
57299;SDS011;43148;50.966;18.198;2023-06-05T08:20:24;0.90;;;0.80;;
57299;SDS011;43148;50.966;18.198;2023-06-05T08:30:06;0.40;;;0.40;;
57299;SDS011;43148;50.966;18.198;2023-06-05T08:39:50;0.50;;;0.50;;
57299;SDS011;43148;50.966;18.198;2023-06-05T08:49:38;0.90;;;0.70;;
57299;SDS011;43148;50.966;18.198;2023-06-05T08:59:34;1.10;;;0.80;;
57299;SDS011;43148;50.966;18.198;2023-06-05T09:09:22;0.20;;;0.20;;
57299;SDS011;43148;50.966;18.198;2023-06-05T09:19:16;0.20;;;0.20;;
57299;SDS011;43148;50.966;18.198;2023-06-05T09:29:19;0.30;;;0.30;;
57299;SDS011;43148;50.966;18.198;2023-06-05T09:39:14;0.70;;;0.70;;
57299;SDS011;43148;50.966;18.198;2023-06-05T09:49:24;0.80;;;0.80;;
57299;SDS011;43148;50.966;18.198;2023-06-05T09:59:16;1.60;;;1.60;;
57299;SDS011;43148;50.966;18.198;2023-06-05T10:09:03;2.30;;;2.30;;
57299;SDS011;43148;50.966;18.198;2023-06-05T10:18:50;4.00;;;3.90;;
57299;SDS011;43148;50.966;18.198;2023-06-05T10:28:59;4.30;;;4.20;;
57299;SDS011;43148;50.966;18.198;2023-06-05T10:39:10;4.90;;;4.70;;
57299;SDS011;43148;50.966;18.198;2023-06-05T10:49:13;6.10;;;5.90;;
57299;SDS011;43148;50.966;18.198;2023-06-05T10:59:17;6.90;;;6.70;;
57299;SDS011;43148;50.966;18.198;2023-06-05T11:15:06;10.50;;;10.20;;
57299;SDS011;43148;50.966;18.198;2023-06-05T11:35:20;13.40;;;13.00;;
57299;SDS011;43148;50.966;18.198;2023-06-05T11:55:31;11.20;;;10.90;;
57299;SDS011;43148;50.966;18.198;2023-06-05T12:05:25;7.60;;;7.40;;
57299;SDS011;43148;50.966;18.198;2023-06-05T12:15:19;5.40;;;5.30;;
57299;SDS011;43148;50.966;18.198;2023-06-05T12:35:17;2.50;;;2.50;;
57299;SDS011;43148;50.966;18.198;2023-06-05T12:52:26;4.30;;;4.20;;
57299;SDS011;43148;50.966;18.198;2023-06-05T13:02:12;2.90;;;2.80;;
57299;SDS011;43148;50.966;18.198;2023-06-05T13:12:00;0.90;;;0.90;;
57299;SDS011;43148;50.966;18.198;2023-06-05T13:21:43;0.30;;;0.30;;
57299;SDS011;43148;50.966;18.198;2023-06-05T13:31:25;0.00;;;0.00;;
57299;SDS011;43148;50.966;18.198;2023-06-05T13:41:08;0.00;;;0.00;;
57299;SDS011;43148;50.966;18.198;2023-06-05T13:50:51;0.00;;;0.00;;
57299;SDS011;43148;50.966;18.198;2023-06-05T14:00:34;0.20;;;0.20;;
57299;SDS011;43148;50.966;18.198;2023-06-05T14:10:21;0.50;;;0.50;;
57299;SDS011;43148;50.966;18.198;2023-06-05T14:20:05;7.80;;;1.00;;
57299;SDS011;43148;50.966;18.198;2023-06-05T14:37:04;0.70;;;0.70;;
57299;SDS011;43148;50.966;18.198;2023-06-05T14:46:46;1.10;;;1.00;;
57299;SDS011;43148;50.966;18.198;2023-06-05T14:56:31;1.30;;;0.90;;
57299;SDS011;43148;50.966;18.198;2023-06-05T15:06:13;3.00;;;0.90;;
57299;SDS011;43148;50.966;18.198;2023-06-05T15:15:57;0.80;;;0.80;;
57299;SDS011;43148;50.966;18.198;2023-06-05T15:25:41;0.90;;;0.80;;
57299;SDS011;43148;50.966;18.198;2023-06-05T15:35:24;0.70;;;0.70;;
57299;SDS011;43148;50.966;18.198;2023-06-05T15:45:07;8.40;;;0.80;;
57299;SDS011;43148;50.966;18.198;2023-06-05T15:54:57;1.00;;;1.00;;
57299;SDS011;43148;50.966;18.198;2023-06-05T16:04:40;0.10;;;0.10;;
57299;SDS011;43148;50.966;18.198;2023-06-05T16:14:23;1.60;;;1.50;;
57299;SDS011;43148;50.966;18.198;2023-06-05T16:24:07;1.40;;;1.00;;
57299;SDS011;43148;50.966;18.198;2023-06-05T16:33:50;5.60;;;1.50;;
57299;SDS011;43148;50.966;18.198;2023-06-05T16:43:34;0.90;;;0.90;;
57299;SDS011;43148;50.966;18.198;2023-06-05T16:53:16;0.90;;;0.90;;
57299;SDS011;43148;50.966;18.198;2023-06-05T17:03:00;1.30;;;1.20;;
57299;SDS011;43148;50.966;18.198;2023-06-05T17:12:43;0.60;;;0.60;;
57299;SDS011;43148;50.966;18.198;2023-06-05T17:22:32;1.30;;;1.00;;
57299;SDS011;43148;50.966;18.198;2023-06-05T17:32:15;1.80;;;1.70;;
57299;SDS011;43148;50.966;18.198;2023-06-05T17:42:00;1.50;;;1.40;;
57299;SDS011;43148;50.966;18.198;2023-06-05T17:51:46;1.80;;;1.30;;
57299;SDS011;43148;50.966;18.198;2023-06-05T18:01:29;2.00;;;1.20;;
57299;SDS011;43148;50.966;18.198;2023-06-05T18:11:11;1.90;;;1.80;;
57299;SDS011;43148;50.966;18.198;2023-06-05T18:20:57;0.90;;;0.80;;
57299;SDS011;43148;50.966;18.198;2023-06-05T18:30:40;1.50;;;1.00;;
57299;SDS011;43148;50.966;18.198;2023-06-05T18:40:23;0.70;;;0.70;;
57299;SDS011;43148;50.966;18.198;2023-06-05T18:57:28;1.40;;;1.30;;
57299;SDS011;43148;50.966;18.198;2023-06-05T19:07:11;2.00;;;1.90;;
57299;SDS011;43148;50.966;18.198;2023-06-05T19:16:53;1.50;;;1.40;;
57299;SDS011;43148;50.966;18.198;2023-06-05T19:26:36;2.00;;;1.90;;
57299;SDS011;43148;50.966;18.198;2023-06-05T19:36:18;2.30;;;2.00;;
57299;SDS011;43148;50.966;18.198;2023-06-05T19:46:01;1.80;;;1.40;;
57299;SDS011;43148;50.966;18.198;2023-06-05T19:55:45;2.70;;;2.50;;
57299;SDS011;43148;50.966;18.198;2023-06-05T20:05:28;2.70;;;2.50;;
57299;SDS011;43148;50.966;18.198;2023-06-05T20:15:10;3.20;;;2.70;;
57299;SDS011;43148;50.966;18.198;2023-06-05T20:24:54;20.00;;;14.20;;
57299;SDS011;43148;50.966;18.198;2023-06-05T20:34:37;3.30;;;3.10;;
57299;SDS011;43148;50.966;18.198;2023-06-05T20:44:22;7.30;;;6.60;;
57299;SDS011;43148;50.966;18.198;2023-06-05T20:54:11;0.80;;;0.50;;
57299;SDS011;43148;50.966;18.198;2023-06-05T21:03:55;2.00;;;1.80;;
57299;SDS011;43148;50.966;18.198;2023-06-05T21:13:39;3.20;;;3.00;;
57299;SDS011;43148;50.966;18.198;2023-06-05T21:23:22;1.50;;;1.40;;
57299;SDS011;43148;50.966;18.198;2023-06-05T21:33:05;2.80;;;2.60;;
57299;SDS011;43148;50.966;18.198;2023-06-05T21:50:06;1.50;;;1.40;;
57299;SDS011;43148;50.966;18.198;2023-06-05T21:59:49;3.00;;;2.80;;
57299;SDS011;43148;50.966;18.198;2023-06-05T22:09:31;2.10;;;0.70;;
57299;SDS011;43148;50.966;18.198;2023-06-05T22:19:22;8.20;;;2.50;;
57299;SDS011;43148;50.966;18.198;2023-06-05T22:29:07;2.70;;;2.50;;
57299;SDS011;43148;50.966;18.198;2023-06-05T22:46:13;0.60;;;0.60;;
57299;SDS011;43148;50.966;18.198;2023-06-05T22:55:58;2.50;;;2.30;;
57299;SDS011;43148;50.966;18.198;2023-06-05T23:05:45;2.80;;;2.60;;
57299;SDS011;43148;50.966;18.198;2023-06-05T23:15:33;4.70;;;2.50;;
57299;SDS011;43148;50.966;18.198;2023-06-05T23:25:29;2.70;;;2.50;;
57299;SDS011;43148;50.966;18.198;2023-06-05T23:35:11;3.10;;;2.90;;
57299;SDS011;43148;50.966;18.198;2023-06-05T23:44:55;2.90;;;2.70;;
57299;SDS011;43148;50.966;18.198;2023-06-05T23:54:37;2.00;;;1.90;;
